Time;durP1;ratioP1;P1;durP2;ratioP2;P2;SDS_P1;SDS_P2;PMS_P1;PMS_P2;Temp;Humidity;BMP_temperature;BMP_pressure;BME280_temperature;BME280_humidity;BME280_pressure;Samples;Min_cycle;Max_cycle;Signal;HPM_P1;HPM_P2
2022/01/21 00:01:38;;;;;;;11.25;7.20;;;;;;;-5.63;83.99;100977.34;10152603;29;20077;-69
2022/01/21 00:06:40;;;;;;;13.23;7.05;;;;;;;-5.95;83.21;100930.97;10137151;29;20180;-69
2022/01/21 00:11:40;;;;;;;12.07;6.68;;;;;;;-5.79;83.63;100965.81;10135991;29;20508;-69
2022/01/21 00:16:41;;;;;;;12.48;6.82;;;;;;;-5.58;84.36;100957.34;10136625;29;20040;-69
2022/01/21 00:32:22;;;;;;;11.02;6.78;;;;;;;-6.22;83.04;100781.00;10135766;29;20414;-69
2022/01/21 00:37:24;;;;;;;11.57;6.45;;;;;;;-5.26;83.47;100939.91;10136305;29;20047;-69
2022/01/21 00:47:29;;;;;;;12.27;7.10;;;;;;;-5.43;82.60;100942.22;10135125;29;20037;-69
2022/01/21 00:52:29;;;;;;;13.85;7.30;;;;;;;-5.55;83.52;100948.63;10135265;29;20060;-68
2022/01/21 00:57:30;;;;;;;12.40;6.78;;;;;;;-5.56;83.70;100952.97;10149741;29;20453;-71
2022/01/21 01:02:31;;;;;;;13.00;6.88;;;;;;;-7.21;83.47;100679.06;10149972;29;20092;-69
2022/01/21 01:07:32;;;;;;;13.15;7.10;;;;;;;-6.53;83.38;100812.16;10134051;29;20076;-68
2022/01/21 01:23:04;;;;;;;11.30;6.43;;;;;;;-5.92;83.91;100936.03;10134029;29;20049;-69
2022/01/21 01:28:05;;;;;;;13.90;6.97;;;;;;;-5.79;83.84;100942.53;10133967;29;20040;-70
2022/01/21 01:33:10;;;;;;;12.43;6.78;;;;;;;-5.67;84.42;100960.22;10133865;29;20064;-69
2022/01/21 01:38:47;;;;;;;14.60;6.97;;;;;;;-5.63;83.80;100951.47;10134780;29;20044;-68
2022/01/21 01:49:28;;;;;;;12.23;6.32;;;;;;;-5.41;83.86;100938.66;10172427;29;20044;-69
2022/01/21 01:54:30;;;;;;;11.07;6.18;;;;;;;-5.23;84.16;100938.94;10172705;29;20059;-69
2022/01/21 01:59:32;;;;;;;12.90;7.13;;;;;;;-5.10;83.89;100928.09;10177014;29;20044;-68
2022/01/21 02:04:33;;;;;;;13.43;6.70;;;;;;;-5.17;83.19;100892.09;10185136;29;20054;-69
2022/01/21 02:09:35;;;;;;;12.82;6.57;;;;;;;-5.84;82.69;100787.41;10185720;29;20111;-69
2022/01/21 02:14:43;;;;;;;17.52;7.63;;;;;;;-4.95;83.55;100912.91;10185548;29;20040;-69
2022/01/21 02:25:16;;;;;;;13.60;7.50;;;;;;;-4.69;84.40;100875.66;10185115;29;20051;-69
2022/01/21 02:30:19;;;;;;;11.60;6.72;;;;;;;-5.71;83.65;100678.28;10184832;29;20052;-69
2022/01/21 02:35:21;;;;;;;13.93;6.88;;;;;;;-4.09;83.79;100926.06;10184936;29;20099;-69
2022/01/21 02:40:22;;;;;;;11.80;7.18;;;;;;;-4.09;83.28;100917.44;10185657;29;20130;-69
2022/01/21 02:45:23;;;;;;;13.88;7.60;;;;;;;-4.25;83.00;100912.84;10184994;29;20091;-69
2022/01/21 02:50:24;;;;;;;13.30;7.97;;;;;;;-4.09;83.11;100933.03;10185439;29;20048;-69
2022/01/21 02:55:25;;;;;;;13.70;7.88;;;;;;;-4.22;82.78;100906.69;10184154;29;20513;-70
2022/01/21 03:00:26;;;;;;;14.55;8.15;;;;;;;-3.96;82.52;100926.41;10183661;29;20040;-69
2022/01/21 03:05:27;;;;;;;14.35;7.85;;;;;;;-3.94;82.95;100927.22;10184496;29;20044;-70
2022/01/21 03:10:28;;;;;;;15.00;8.18;;;;;;;-3.88;82.91;100920.94;10157569;29;20158;-70
2022/01/21 03:15:29;;;;;;;13.98;7.80;;;;;;;-3.87;82.95;100923.47;10139336;29;20048;-70
2022/01/21 03:20:30;;;;;;;14.20;8.48;;;;;;;-3.70;83.07;100923.63;10138682;29;20414;-69
2022/01/21 03:25:30;;;;;;;16.95;8.50;;;;;;;-4.51;82.75;100767.81;10138145;29;20049;-69
2022/01/21 03:30:31;;;;;;;14.75;8.23;;;;;;;-3.68;83.25;100884.59;10138289;29;20470;-71
2022/01/21 03:35:33;;;;;;;16.58;9.57;;;;;;;-3.42;83.42;100893.91;10163541;29;20107;-70
2022/01/21 03:40:34;;;;;;;15.32;8.90;;;;;;;-3.24;82.65;100916.47;10173166;29;20057;-71
2022/01/21 03:45:35;;;;;;;14.77;9.05;;;;;;;-3.35;83.02;100863.28;10175579;29;20056;-70
2022/01/21 03:50:36;;;;;;;14.55;8.60;;;;;;;-3.41;82.98;100841.06;10176549;29;20048;-70
2022/01/21 03:55:37;;;;;;;17.25;9.23;;;;;;;-3.91;82.79;100742.81;10176958;29;20066;-70
2022/01/21 04:00:48;;;;;;;17.52;9.50;;;;;;;-3.12;83.42;100862.28;10139568;29;20573;-71
2022/01/21 04:05:50;;;;;;;16.00;8.98;;;;;;;-3.01;83.23;100886.91;10149520;29;20497;-69
2022/01/21 04:10:50;;;;;;;17.27;9.43;;;;;;;-3.12;83.71;100860.53;10176356;29;20044;-69
2022/01/21 04:15:53;;;;;;;18.50;9.95;;;;;;;-3.98;84.00;100711.09;10176018;29;20040;-69
2022/01/21 04:20:54;;;;;;;17.15;9.68;;;;;;;-3.04;84.24;100875.81;10175108;29;20413;-68
2022/01/21 04:25:55;;;;;;;15.82;9.00;;;;;;;-3.05;84.38;100869.78;10175705;29;20468;-70
2022/01/21 04:30:58;;;;;;;18.40;8.98;;;;;;;-3.06;84.71;100865.47;10174573;29;20040;-69
2022/01/21 04:35:59;;;;;;;18.92;9.30;;;;;;;-3.27;85.08;100828.28;10174926;29;20123;-69
2022/01/21 04:52:02;;;;;;;19.75;10.32;;;;;;;-3.78;85.55;100737.94;10174238;29;20509;-70
2022/01/21 04:57:05;;;;;;;19.02;10.70;;;;;;;-2.89;85.68;100875.13;10175689;29;20100;-69
2022/01/21 05:02:06;;;;;;;19.23;10.02;;;;;;;-2.84;85.81;100872.28;10173355;29;20107;-68
2022/01/21 05:07:10;;;;;;;18.98;10.18;;;;;;;-2.76;85.60;100872.78;10175101;29;20051;-70
2022/01/21 05:12:13;;;;;;;19.77;10.83;;;;;;;-3.37;85.55;100743.88;10175227;29;20039;-70
2022/01/21 05:17:15;;;;;;;18.60;10.77;;;;;;;-2.74;85.79;100854.53;10174189;29;20574;-68
2022/01/21 05:22:16;;;;;;;20.95;9.65;;;;;;;-2.49;85.86;100878.47;10173834;29;20040;-69
2022/01/21 05:27:17;;;;;;;17.95;10.55;;;;;;;-2.47;85.65;100889.66;10173180;29;20039;-68
2022/01/21 05:32:18;;;;;;;18.15;9.73;;;;;;;-2.60;85.99;100862.56;10172320;29;20052;-69
2022/01/21 05:37:20;;;;;;;18.48;9.98;;;;;;;-2.43;86.09;100878.19;10171730;29;20446;-68
2022/01/21 05:42:21;;;;;;;19.27;10.18;;;;;;;-3.88;85.82;100609.47;10173278;29;20481;-68
2022/01/21 05:47:22;;;;;;;19.85;10.43;;;;;;;-3.13;86.09;100735.88;10173694;29;20489;-68
2022/01/21 05:52:33;;;;;;;20.35;10.48;;;;;;;-2.22;86.56;100878.94;10172527;29;20056;-69
2022/01/21 05:57:34;;;;;;;18.73;10.27;;;;;;;-2.04;86.26;100881.56;10171764;29;20066;-69
2022/01/21 06:02:36;;;;;;;17.40;9.32;;;;;;;-2.21;85.92;100830.34;10172283;29;20139;-68
2022/01/21 06:07:37;;;;;;;17.63;9.88;;;;;;;-2.12;86.11;100835.13;10172630;29;20127;-69
2022/01/21 06:12:37;;;;;;;20.27;9.82;;;;;;;-1.87;86.18;100858.16;10173172;29;20135;-69
2022/01/21 06:17:38;;;;;;;17.13;9.23;;;;;;;-1.77;85.18;100851.56;10171994;29;20052;-69
2022/01/21 06:22:39;;;;;;;16.50;9.70;;;;;;;-1.54;84.33;100868.66;10171862;29;20044;-69
2022/01/21 06:27:40;;;;;;;19.65;10.45;;;;;;;-1.57;84.80;100868.81;10172709;29;20431;-69
2022/01/21 06:32:42;;;;;;;16.92;9.20;;;;;;;-1.69;84.82;100833.81;10172178;29;20493;-70
2022/01/21 06:37:43;;;;;;;18.58;10.50;;;;;;;-2.15;83.84;100737.19;10172753;29;20094;-70
2022/01/21 06:42:44;;;;;;;18.33;10.05;;;;;;;-1.93;84.23;100760.38;10173062;29;20106;-71
2022/01/21 06:47:45;;;;;;;18.98;8.82;;;;;;;-1.42;83.87;100825.50;10178823;29;20047;-69
2022/01/21 06:58:15;;;;;;;15.68;9.30;;;;;;;-1.00;83.26;100865.88;10179462;29;20059;-69
2022/01/21 07:03:16;;;;;;;16.00;8.98;;;;;;;-0.85;83.26;100885.09;10178318;29;20449;-70
2022/01/21 07:08:17;;;;;;;14.60;8.60;;;;;;;-0.76;83.57;100875.00;10177492;29;20067;-70
2022/01/21 07:13:17;;;;;;;17.45;9.05;;;;;;;-0.57;84.21;100887.03;10178052;29;20044;-70
2022/01/21 07:18:18;;;;;;;11.73;7.20;;;;;;;-1.29;82.02;100721.44;10178187;29;20040;-70
2022/01/21 07:23:19;;;;;;;12.52;7.15;;;;;;;-0.31;82.39;100872.56;10178489;29;20052;-70
2022/01/21 07:28:20;;;;;;;15.07;8.07;;;;;;;-0.99;81.78;100721.53;10177756;29;20032;-69
2022/01/21 07:33:21;;;;;;;14.05;7.10;;;;;;;-0.17;81.09;100859.59;10178319;29;20055;-70
2022/01/21 07:38:22;;;;;;;10.70;6.45;;;;;;;0.01;79.19;100833.38;10178915;29;20142;-70
2022/01/21 07:43:22;;;;;;;11.48;5.97;;;;;;;0.10;79.80;100831.06;10177719;29;20040;-70
2022/01/21 07:48:23;;;;;;;14.55;5.97;;;;;;;0.21;78.73;100804.31;10176560;29;20048;-71
2022/01/21 07:53:24;;;;;;;10.27;6.55;;;;;;;0.39;78.33;100816.28;10175786;29;20091;-71
2022/01/21 07:58:25;;;;;;;12.00;6.50;;;;;;;0.93;76.87;100861.88;10176463;29;20122;-71
2022/01/21 08:03:25;;;;;;;9.38;5.95;;;;;;;1.22;75.21;100841.78;10175981;29;20457;-71
2022/01/21 08:08:26;;;;;;;10.27;6.75;;;;;;;1.91;74.03;100845.22;10176573;29;20051;-73
2022/01/21 08:13:28;;;;;;;11.15;6.78;;;;;;;1.25;73.39;100690.63;10176421;29;20068;-71
2022/01/21 08:18:28;;;;;;;9.68;5.13;;;;;;;1.46;72.73;100708.50;10176329;29;20043;-71
2022/01/21 08:23:29;;;;;;;12.05;6.35;;;;;;;1.29;72.63;100665.94;10175812;29;20492;-71
2022/01/21 08:28:30;;;;;;;9.43;6.07;;;;;;;1.63;70.93;100681.19;10176316;29;20473;-71
2022/01/21 08:33:31;;;;;;;10.45;7.05;;;;;;;2.21;70.94;100798.63;10174907;29;20420;-71
2022/01/21 08:38:32;;;;;;;12.18;6.82;;;;;;;1.78;70.65;100665.28;10176487;29;20072;-73
2022/01/21 08:43:37;;;;;;;10.10;6.32;;;;;;;2.80;70.10;100778.94;10175305;29;20413;-72
2022/01/21 08:48:38;;;;;;;11.88;6.97;;;;;;;2.63;69.70;100743.38;10174920;29;20051;-72
2022/01/21 08:53:41;;;;;;;10.90;7.18;;;;;;;3.07;69.01;100770.88;10175266;29;20059;-72
2022/01/21 08:58:44;;;;;;;12.32;7.55;;;;;;;3.26;68.57;100757.28;10174533;29;20055;-72
2022/01/21 09:03:45;;;;;;;10.73;6.80;;;;;;;3.41;67.50;100778.03;10174120;29;20055;-74
2022/01/21 09:08:46;;;;;;;10.75;6.47;;;;;;;3.19;67.42;100671.09;10172963;29;20087;-71
2022/01/21 09:13:47;;;;;;;11.15;6.25;;;;;;;3.97;66.01;100742.41;10172849;29;20557;-71
2022/01/21 09:18:56;;;;;;;13.88;6.15;;;;;;;4.01;65.54;100697.38;10173903;29;20513;-72
2022/01/21 09:23:58;;;;;;;7.53;5.07;;;;;;;3.45;64.89;100599.22;10173684;29;20052;-72
2022/01/21 09:29:01;;;;;;;10.15;5.35;;;;;;;3.92;65.25;100684.94;10173808;29;20130;-71
2022/01/21 09:34:04;;;;;;;12.73;5.97;;;;;;;4.08;65.12;100711.72;10174178;29;20051;-71
2022/01/21 09:39:06;;;;;;;8.43;5.07;;;;;;;4.06;64.29;100695.22;10173216;29;20032;-71
2022/01/21 09:44:12;;;;;;;7.80;5.22;;;;;;;3.93;65.10;100697.13;10172578;29;20048;-71
2022/01/21 09:54:22;;;;;;;7.72;5.30;;;;;;;3.91;63.95;100674.53;10173168;29;20490;-71
2022/01/21 09:59:26;;;;;;;9.73;5.38;;;;;;;3.98;62.71;100624.03;10172091;29;20062;-71
2022/01/21 10:04:30;;;;;;;9.18;5.60;;;;;;;4.53;63.09;100645.16;10172565;29;20144;-71
2022/01/21 10:09:32;;;;;;;8.55;4.53;;;;;;;4.48;62.58;100657.81;10172602;29;20417;-71
2022/01/21 10:14:32;;;;;;;7.00;4.43;;;;;;;2.76;63.15;100428.56;10172693;29;20040;-70
2022/01/21 10:19:35;;;;;;;10.75;4.80;;;;;;;3.34;64.55;100568.50;10172808;29;20051;-73
2022/01/21 10:24:50;;;;;;;7.97;4.93;;;;;;;3.79;65.58;100644.78;10179621;29;20048;-71
2022/01/21 10:29:52;;;;;;;7.18;5.03;;;;;;;3.76;64.51;100597.69;10180573;29;20036;-71
2022/01/21 10:34:53;;;;;;;6.95;5.10;;;;;;;2.85;64.43;100396.38;10178693;29;20051;-70
2022/01/21 10:40:00;;;;;;;8.77;4.72;;;;;;;4.14;64.35;100594.72;10180992;29;20055;-70
2022/01/21 10:45:03;;;;;;;8.85;4.97;;;;;;;4.30;64.89;100645.16;10179584;29;20052;-71
2022/01/21 10:50:13;;;;;;;8.88;5.53;;;;;;;3.53;64.94;100508.38;10179288;29;20052;-73
2022/01/21 10:55:30;;;;;;;7.90;5.25;;;;;;;3.41;65.86;100525.91;10177834;29;20056;-71
2022/01/21 11:00:31;;;;;;;8.77;5.30;;;;;;;4.11;65.63;100608.94;10178268;29;20492;-71
2022/01/21 11:05:37;;;;;;;10.88;5.82;;;;;;;4.16;66.12;100597.22;10178734;29;20048;-71
2022/01/21 11:10:50;;;;;;;10.50;5.15;;;;;;;4.50;66.26;100613.81;10178155;29;20048;-71
2022/01/21 11:16:03;;;;;;;9.25;5.30;;;;;;;4.57;65.31;100572.91;10177908;29;20048;-70
2022/01/21 11:21:08;;;;;;;7.63;5.10;;;;;;;3.97;66.53;100548.72;10177675;29;20052;-71
2022/01/21 11:26:09;;;;;;;7.97;4.53;;;;;;;3.75;67.24;100532.97;10178152;29;20409;-71
2022/01/21 11:31:10;;;;;;;17.20;6.05;;;;;;;3.53;68.56;100528.53;10176378;29;20063;-71
2022/01/21 11:36:11;;;;;;;9.07;5.30;;;;;;;4.16;68.19;100589.34;10176746;29;20047;-71
2022/01/21 11:41:14;;;;;;;8.10;4.28;;;;;;;4.11;68.35;100580.03;10177013;29;20048;-71
2022/01/21 11:51:20;;;;;;;9.43;5.60;;;;;;;4.10;68.45;100559.13;10177334;29;20132;-71
2022/01/21 11:56:43;;;;;;;8.48;4.05;;;;;;;4.17;69.12;100577.88;10177706;29;20417;-74
2022/01/21 12:01:48;;;;;;;11.05;6.43;;;;;;;3.51;70.05;100502.41;10177016;29;20095;-72
2022/01/21 12:06:48;;;;;;;13.32;6.47;;;;;;;3.91;69.28;100564.97;10175016;29;20075;-71
2022/01/21 12:11:56;;;;;;;12.65;6.68;;;;;;;4.12;69.69;100568.53;10173736;29;20075;-72
2022/01/21 12:17:11;;;;;;;9.95;5.45;;;;;;;4.37;69.02;100574.53;10168390;29;20142;-70
2022/01/21 12:22:13;;;;;;;16.38;6.55;;;;;;;4.45;68.91;100582.59;10155886;29;20497;-71
2022/01/21 12:27:15;;;;;;;8.68;5.10;;;;;;;4.19;68.85;100550.53;10161099;29;20416;-72
2022/01/21 12:32:33;;;;;;;11.60;6.30;;;;;;;4.13;68.96;100590.44;10163650;29;20059;-71
2022/01/21 12:38:03;;;;;;;7.85;4.78;;;;;;;3.86;69.56;100538.25;10161695;29;20055;-70
2022/01/21 12:43:41;;;;;;;11.20;6.03;;;;;;;3.93;70.21;100578.00;10156960;29;20449;-73
2022/01/21 12:48:47;;;;;;;14.30;6.53;;;;;;;3.75;71.17;100588.16;10135711;29;20540;-71
2022/01/21 12:59:21;;;;;;;8.05;4.65;;;;;;;3.48;70.47;100564.84;10144164;29;20072;-72
2022/01/21 13:04:28;;;;;;;9.50;5.80;;;;;;;3.42;70.58;100584.53;10134835;29;20051;-73
2022/01/21 13:10:01;;;;;;;7.80;5.20;;;;;;;3.31;71.04;100572.19;10159014;29;20052;-70
2022/01/21 13:15:02;;;;;;;9.60;5.63;;;;;;;2.43;71.19;100453.72;10140087;29;20049;-70
2022/01/21 13:20:04;;;;;;;10.32;4.85;;;;;;;2.97;71.38;100540.59;10167193;29;20390;-70
2022/01/21 13:25:13;;;;;;;9.45;5.30;;;;;;;2.87;71.77;100568.50;10146600;29;20402;-70
2022/01/21 13:30:17;;;;;;;9.88;5.63;;;;;;;1.80;72.23;100401.47;10165751;29;20123;-72
2022/01/21 13:35:25;;;;;;;11.15;5.57;;;;;;;1.60;72.67;100399.44;10166815;29;20040;-72
2022/01/21 13:40:26;;;;;;;9.57;5.60;;;;;;;2.41;73.34;100560.50;10165616;29;20044;-69
2022/01/21 13:45:27;;;;;;;9.82;5.65;;;;;;;1.07;73.27;100383.94;10168263;29;20040;-71
2022/01/21 13:50:27;;;;;;;13.68;6.00;;;;;;;1.97;74.06;100567.09;10166515;29;20036;-70
2022/01/21 13:55:34;;;;;;;10.65;5.45;;;;;;;1.98;74.30;100568.78;10167404;29;20056;-70
2022/01/21 14:00:42;;;;;;;11.88;7.07;;;;;;;1.71;75.05;100553.22;10168276;29;20051;-71
2022/01/21 14:05:45;;;;;;;10.57;6.05;;;;;;;0.96;75.41;100458.84;10163020;29;20054;-79
2022/01/21 14:10:46;;;;;;;10.60;5.97;;;;;;;1.21;75.65;100529.53;10190051;29;20374;-70
2022/01/21 14:15:47;;;;;;;10.88;6.10;;;;;;;0.33;75.79;100413.38;10164276;29;20054;-72
2022/01/21 14:20:48;;;;;;;9.32;5.72;;;;;;;1.27;76.20;100576.22;10167513;29;20047;-70
2022/01/21 14:25:53;;;;;;;9.50;5.60;;;;;;;1.10;76.09;100550.31;10166278;29;20032;-71
2022/01/21 14:30:54;;;;;;;9.75;5.50;;;;;;;0.50;76.29;100473.22;10166399;29;20032;-72
2022/01/21 14:35:55;;;;;;;11.48;5.68;;;;;;;0.82;76.68;100541.69;10165373;29;20040;-69
2022/01/21 14:40:59;;;;;;;10.13;5.32;;;;;;;-0.04;77.20;100392.25;10167381;29;20036;-69
2022/01/21 14:46:03;;;;;;;9.67;5.33;;;;;;;-0.17;77.25;100371.31;10164378;29;20134;-73
2022/01/21 14:51:12;;;;;;;10.38;5.25;;;;;;;0.93;77.36;100558.44;10162704;29;20287;-70
2022/01/21 14:56:33;;;;;;;7.95;4.90;;;;;;;0.89;77.82;100558.66;10164581;29;20564;-70
2022/01/21 15:01:34;;;;;;;9.15;5.65;;;;;;;0.81;77.70;100555.72;10167138;29;20119;-69
2022/01/21 15:06:35;;;;;;;10.63;5.43;;;;;;;0.77;77.63;100561.25;10173122;29;20134;-70
2022/01/21 15:11:55;;;;;;;10.38;6.03;;;;;;;0.68;77.64;100552.22;10177905;29;20485;-70
2022/01/21 15:17:00;;;;;;;10.60;5.95;;;;;;;0.27;78.51;100503.47;10176583;29;20044;-70
2022/01/21 15:22:04;;;;;;;7.97;4.78;;;;;;;0.61;77.97;100566.63;10176271;29;20047;-71
2022/01/21 15:27:05;;;;;;;13.70;5.88;;;;;;;0.49;78.45;100551.75;10177387;29;20138;-70
2022/01/21 15:32:07;;;;;;;13.63;5.78;;;;;;;0.29;78.28;100537.31;10176543;29;20087;-70
2022/01/21 15:37:09;;;;;;;11.60;6.75;;;;;;;-0.39;79.28;100467.56;10191240;29;20036;-72
2022/01/21 15:42:10;;;;;;;14.80;6.90;;;;;;;-0.16;78.93;100537.47;10091577;29;20403;-69
2022/01/21 15:47:11;;;;;;;11.20;6.38;;;;;;;-2.05;79.17;100218.72;10176626;29;20488;-69
2022/01/21 15:52:12;;;;;;;13.75;6.90;;;;;;;-0.80;79.15;100403.97;10177151;29;20044;-70
2022/01/21 15:57:13;;;;;;;11.27;7.20;;;;;;;0.17;79.76;100562.44;10175730;29;20056;-70
2022/01/21 16:02:14;;;;;;;13.27;7.32;;;;;;;-0.56;79.73;100456.41;10175164;29;20044;-71
2022/01/21 16:07:15;;;;;;;14.68;7.78;;;;;;;-0.43;79.09;100492.19;10171021;29;20048;-72
2022/01/21 16:12:16;;;;;;;14.27;7.32;;;;;;;-0.18;80.20;100539.38;10065496;29;20110;-73
2022/01/21 16:17:17;;;;;;;19.20;8.98;;;;;;;-0.26;79.91;100533.78;10167608;29;20036;-71
2022/01/21 16:22:19;;;;;;;16.52;7.63;;;;;;;-0.17;80.09;100558.47;10170619;29;20044;-74
2022/01/21 16:27:20;;;;;;;13.15;7.78;;;;;;;-0.96;80.20;100424.94;10169813;29;20063;-71
2022/01/21 16:32:21;;;;;;;13.45;6.78;;;;;;;-0.92;79.45;100434.25;10167233;29;20402;-73
2022/01/21 16:37:22;;;;;;;15.45;6.88;;;;;;;-0.08;80.04;100590.09;10168117;29;20040;-71
2022/01/21 16:42:23;;;;;;;14.60;6.55;;;;;;;-0.12;80.27;100591.22;10164284;29;20060;-71
2022/01/21 16:47:23;;;;;;;14.27;7.53;;;;;;;-1.64;79.91;100336.06;10169925;29;20098;-71
2022/01/21 16:52:35;;;;;;;14.40;6.65;;;;;;;-0.47;80.71;100536.75;10167512;29;20062;-71
2022/01/21 16:57:37;;;;;;;12.77;6.55;;;;;;;-1.32;80.23;100381.03;10170241;29;20489;-73
2022/01/21 17:02:38;;;;;;;14.13;6.95;;;;;;;-1.06;80.99;100426.41;10168685;29;20138;-73
2022/01/21 17:07:39;;;;;;;15.13;7.40;;;;;;;-2.02;81.24;100268.81;10163286;29;20130;-74
2022/01/21 17:12:40;;;;;;;13.82;6.95;;;;;;;-0.79;80.87;100470.84;10152092;29;20124;-73
2022/01/21 17:17:41;;;;;;;15.13;7.10;;;;;;;-1.26;81.79;100401.50;10164222;29;20076;-73
2022/01/21 17:22:57;;;;;;;10.27;5.50;;;;;;;-0.76;81.82;100485.47;10162317;29;20054;-72
2022/01/21 17:27:58;;;;;;;14.85;6.72;;;;;;;-2.13;81.72;100268.59;10170529;29;20135;-73
2022/01/21 17:32:59;;;;;;;13.93;7.57;;;;;;;-0.68;81.95;100519.78;10169472;29;20060;-71
2022/01/21 17:37:59;;;;;;;13.73;6.75;;;;;;;-0.68;82.15;100522.38;10172591;29;20043;-71
2022/01/21 17:43:00;;;;;;;11.98;6.93;;;;;;;-1.88;82.32;100340.94;10172298;29;20545;-71
2022/01/21 17:48:03;;;;;;;11.77;6.00;;;;;;;-1.13;81.99;100461.59;10172098;29;20167;-70
2022/01/21 17:53:08;;;;;;;17.20;7.22;;;;;;;-1.33;82.04;100420.22;10172786;29;20060;-73
2022/01/21 17:58:10;;;;;;;13.32;7.53;;;;;;;-1.89;82.36;100345.28;10170711;29;20036;-72
2022/01/21 18:03:12;;;;;;;15.38;7.65;;;;;;;-1.19;82.14;100456.75;10172356;29;20420;-71
2022/01/21 18:08:14;;;;;;;11.35;6.63;;;;;;;-0.84;82.12;100500.75;10171767;29;20072;-70
2022/01/21 18:13:18;;;;;;;12.07;6.07;;;;;;;-0.80;82.42;100505.69;10171482;29;20040;-70
2022/01/21 18:18:22;;;;;;;15.27;7.83;;;;;;;-0.82;82.49;100504.09;10172551;29;20048;-70
2022/01/21 18:23:23;;;;;;;14.00;7.13;;;;;;;-0.94;82.37;100495.25;10172031;29;20303;-71
2022/01/21 18:28:26;;;;;;;13.85;7.70;;;;;;;-1.13;82.89;100465.97;10140079;29;20048;-71
2022/01/21 18:33:31;;;;;;;13.73;7.47;;;;;;;-1.09;82.74;100477.91;10152053;29;20063;-71
2022/01/21 18:38:35;;;;;;;14.48;7.30;;;;;;;-1.18;82.33;100451.44;10152731;29;20036;-73
2022/01/21 18:43:36;;;;;;;15.55;6.47;;;;;;;-1.35;82.25;100415.09;10144723;29;20049;-70
2022/01/21 18:48:38;;;;;;;12.73;6.47;;;;;;;-2.08;81.66;100301.25;10176850;29;20473;-70
2022/01/21 18:53:42;;;;;;;15.68;7.43;;;;;;;-0.97;82.24;100483.22;10178957;29;20535;-71
2022/01/21 18:58:46;;;;;;;13.00;5.82;;;;;;;-0.99;82.14;100485.09;10179102;29;20048;-69
2022/01/21 19:03:52;;;;;;;13.30;7.03;;;;;;;-2.14;81.42;100300.78;10175501;29;20040;-72
2022/01/21 19:08:56;;;;;;;13.18;6.75;;;;;;;-1.22;82.02;100452.56;10176704;29;20276;-71
2022/01/21 19:13:57;;;;;;;12.27;6.72;;;;;;;-1.02;81.75;100482.63;10176547;29;20405;-71
2022/01/21 19:18:58;;;;;;;14.90;7.28;;;;;;;-1.18;81.83;100461.84;10173933;29;20055;-71
2022/01/21 19:24:24;;;;;;;14.25;6.82;;;;;;;-1.55;81.54;100402.41;10178057;29;20048;-71
2022/01/21 19:29:25;;;;;;;10.88;6.00;;;;;;;-1.41;81.52;100431.09;10178240;29;20043;-70
2022/01/21 19:34:26;;;;;;;12.75;7.35;;;;;;;-1.16;81.76;100451.34;10177800;29;20044;-70
2022/01/21 19:39:27;;;;;;;13.20;6.85;;;;;;;-1.24;81.55;100457.00;10177882;29;20091;-70
2022/01/21 19:44:30;;;;;;;13.00;7.22;;;;;;;-2.09;81.46;100298.75;10176180;29;20047;-71
2022/01/21 19:49:31;;;;;;;14.32;7.25;;;;;;;-2.07;81.00;100299.47;10176860;29;20040;-71
2022/01/21 19:54:32;;;;;;;13.23;7.10;;;;;;;-2.90;81.00;100160.31;10161334;29;20119;-71
2022/01/21 19:59:36;;;;;;;14.40;7.72;;;;;;;-1.49;81.63;100415.09;10137355;29;20185;-71
2022/01/21 20:09:59;;;;;;;18.13;7.65;;;;;;;-1.34;81.63;100442.84;10138165;29;20044;-71
2022/01/21 20:15:09;;;;;;;12.95;6.90;;;;;;;-1.65;81.34;100402.09;10137480;29;20048;-70
2022/01/21 20:20:12;;;;;;;14.18;7.35;;;;;;;-1.61;81.90;100403.59;10137187;29;20063;-71
2022/01/21 20:25:13;;;;;;;13.25;6.60;;;;;;;-1.45;82.01;100427.81;10151199;29;20172;-71
2022/01/21 20:30:14;;;;;;;15.68;7.30;;;;;;;-1.48;81.74;100420.19;10136927;29;20144;-70
2022/01/21 20:35:17;;;;;;;14.93;7.00;;;;;;;-1.65;81.87;100396.88;10135734;29;20107;-72
2022/01/21 20:45:27;;;;;;;11.77;6.60;;;;;;;-1.80;82.00;100353.50;10136167;29;20095;-70
2022/01/21 20:50:28;;;;;;;13.77;7.32;;;;;;;-1.67;81.67;100370.94;10136034;29;20051;-70
2022/01/21 20:55:29;;;;;;;12.40;6.75;;;;;;;-2.35;81.97;100254.25;10135448;29;20430;-70
2022/01/21 21:00:30;;;;;;;13.23;6.72;;;;;;;-2.20;81.53;100269.91;10150390;29;20056;-70
2022/01/21 21:05:31;;;;;;;16.67;7.82;;;;;;;-1.54;81.64;100368.44;10134644;29;20044;-70
2022/01/21 21:10:32;;;;;;;16.60;6.72;;;;;;;-1.47;81.38;100351.50;10135270;29;20047;-71
2022/01/21 21:15:35;;;;;;;13.88;6.63;;;;;;;-1.61;80.78;100315.88;10134630;29;20099;-70
2022/01/21 21:26:17;;;;;;;12.68;6.47;;;;;;;-1.24;80.30;100363.16;10134300;29;20398;-71
2022/01/21 23:04:39;;;;;;;15.02;8.00;;;;;;;-1.73;78.87;100316.59;10398885;28;20038;-70
2022/01/21 23:09:40;;;;;;;15.00;8.05;;;;;;;-1.69;79.68;100338.91;10389534;28;20057;-70
2022/01/21 23:14:41;;;;;;;14.77;7.35;;;;;;;-1.90;79.10;100320.19;10370795;28;20046;-70
2022/01/21 23:19:43;;;;;;;18.40;8.98;;;;;;;-2.85;79.10;100173.91;10371566;28;20046;-70
2022/01/21 23:24:44;;;;;;;16.05;7.22;;;;;;;-2.41;79.55;100271.97;10370486;28;20042;-70
2022/01/21 23:29:45;;;;;;;14.07;7.55;;;;;;;-2.06;79.78;100322.00;10371544;28;20048;-70
2022/01/21 23:34:52;;;;;;;14.48;7.45;;;;;;;-2.12;80.27;100335.38;10370689;28;20041;-69
2022/01/21 23:40:18;;;;;;;14.27;7.60;;;;;;;-2.28;80.13;100313.72;10370776;28;20046;-72
2022/01/21 23:45:19;;;;;;;16.17;8.38;;;;;;;-2.46;80.05;100311.22;10369447;28;20530;-70
2022/01/21 23:50:23;;;;;;;15.32;7.95;;;;;;;-2.92;80.24;100230.59;10370138;28;20046;-69
2022/01/21 23:55:24;;;;;;;17.38;8.50;;;;;;;-2.65;80.94;100276.78;10370837;28;20081;-69
